Time;durP1;ratioP1;P1;durP2;ratioP2;P2;SDS_P1;SDS_P2;PMS_P1;PMS_P2;Temp;Humidity;BMP_temperature;BMP_pressure;BME280_temperature;BME280_humidity;BME280_pressure;Samples;Min_cycle;Max_cycle;Signal;HPM_P1;HPM_P2
2022/07/14 00:01:47;;;;;;;5.78;1.40;;;16.60;99.90;;;;;;5033134;28;20122;-81
2022/07/14 00:04:13;;;;;;;6.70;1.23;;;16.60;99.90;;;;;;5021293;28;20049;-81
2022/07/14 00:06:39;;;;;;;6.00;1.55;;;16.60;99.90;;;;;;5021026;28;20040;-81
2022/07/14 00:09:04;;;;;;;5.45;1.40;;;16.60;99.90;;;;;;5000382;28;20476;-79
2022/07/14 00:11:30;;;;;;;3.92;1.10;;;16.60;99.90;;;;;;5019005;28;20859;-80
2022/07/14 00:13:58;;;;;;;3.33;1.08;;;16.60;99.90;;;;;;5003189;28;20037;-80
2022/07/14 00:16:25;;;;;;;3.78;1.10;;;16.60;99.90;;;;;;5035771;28;20112;-79
2022/07/14 00:18:51;;;;;;;4.72;1.90;;;16.50;99.90;;;;;;5020143;28;20064;-79
2022/07/14 00:21:17;;;;;;;4.45;1.20;;;16.50;99.90;;;;;;5020825;28;20526;-79
2022/07/14 00:23:45;;;;;;;3.00;0.90;;;16.50;99.90;;;;;;5039062;28;20483;-80
2022/07/14 00:26:12;;;;;;;5.70;1.35;;;16.50;99.90;;;;;;5013471;28;20055;-80
2022/07/14 00:28:38;;;;;;;5.10;1.42;;;16.40;99.90;;;;;;5025187;28;20059;-79
2022/07/14 00:31:09;;;;;;;5.45;1.52;;;16.40;99.90;;;;;;4995108;28;20137;-79
2022/07/14 00:33:36;;;;;;;3.60;1.23;;;16.40;99.90;;;;;;5028945;28;20151;-80
2022/07/14 00:36:03;;;;;;;4.07;1.13;;;16.40;99.90;;;;;;5024734;28;20107;-79
2022/07/14 00:38:29;;;;;;;6.07;1.40;;;16.30;99.90;;;;;;5009010;28;20585;-80
2022/07/14 00:40:55;;;;;;;3.45;1.00;;;16.30;99.90;;;;;;5039259;28;20056;-80
2022/07/14 00:43:21;;;;;;;5.28;1.30;;;16.30;99.90;;;;;;5008068;28;20118;-80
2022/07/14 00:45:47;;;;;;;7.90;1.60;;;16.30;99.90;;;;;;4989959;28;20037;-80
2022/07/14 00:48:12;;;;;;;4.75;1.40;;;16.20;99.90;;;;;;5008352;28;20048;-80
2022/07/14 00:50:41;;;;;;;3.65;1.20;;;16.20;99.90;;;;;;5020455;28;20545;-80
2022/07/14 00:53:08;;;;;;;4.28;1.23;;;16.10;99.90;;;;;;5022855;28;20047;-80
2022/07/14 00:55:40;;;;;;;6.93;1.40;;;16.10;99.90;;;;;;5004402;28;20087;-80
2022/07/14 00:58:06;;;;;;;5.63;1.50;;;16.40;99.90;;;;;;5038182;28;20049;-80
2022/07/14 01:00:32;;;;;;;5.30;1.17;;;16.00;99.90;;;;;;5037913;28;20064;-80
2022/07/14 01:02:58;;;;;;;8.18;1.38;;;16.00;99.90;;;;;;5019744;28;20592;-79
2022/07/14 01:05:27;;;;;;;4.95;1.20;;;16.00;99.90;;;;;;5020156;28;20032;-80
2022/07/14 01:07:54;;;;;;;6.03;1.00;;;15.90;99.90;;;;;;5011453;28;20052;-80
2022/07/14 01:10:20;;;;;;;4.35;1.20;;;15.90;99.90;;;;;;5023417;28;20041;-80
2022/07/14 01:12:49;;;;;;;5.85;1.50;;;15.90;99.90;;;;;;5021499;28;20040;-80
2022/07/14 01:15:15;;;;;;;5.60;1.52;;;15.90;99.90;;;;;;5023406;28;20063;-80
2022/07/14 01:17:41;;;;;;;4.85;1.40;;;15.80;99.90;;;;;;5022301;28;20127;-79
2022/07/14 01:20:08;;;;;;;5.10;1.10;;;15.70;99.90;;;;;;5018917;28;20132;-80
2022/07/14 01:22:34;;;;;;;4.35;1.40;;;15.70;99.90;;;;;;5023148;28;20119;-79
2022/07/14 01:25:00;;;;;;;5.40;1.27;;;15.70;99.90;;;;;;5006974;28;20488;-81
2022/07/14 01:27:25;;;;;;;4.53;1.10;;;15.60;99.90;;;;;;5039007;28;20041;-81
2022/07/14 01:29:51;;;;;;;4.40;1.40;;;15.60;99.90;;;;;;5013769;28;20499;-81
2022/07/14 01:32:17;;;;;;;5.82;1.48;;;15.60;99.90;;;;;;4991859;28;20044;-81
2022/07/14 01:34:42;;;;;;;6.50;1.20;;;15.50;99.90;;;;;;5023445;28;20047;-80
2022/07/14 01:37:11;;;;;;;4.18;1.38;;;15.50;99.90;;;;;;4991756;28;20051;-80
2022/07/14 01:39:37;;;;;;;3.88;0.95;;;15.50;99.90;;;;;;5024258;28;20040;-80
2022/07/14 01:42:03;;;;;;;5.22;1.50;;;15.40;99.90;;;;;;5024232;28;20060;-80
2022/07/14 01:44:29;;;;;;;4.97;1.45;;;15.40;99.90;;;;;;5031520;28;20067;-80
2022/07/14 01:46:54;;;;;;;5.13;1.88;;;15.40;99.90;;;;;;5019555;28;20523;-80
2022/07/14 01:49:20;;;;;;;6.10;1.30;;;15.40;99.90;;;;;;4992518;28;20066;-80
2022/07/14 01:51:46;;;;;;;3.42;0.93;;;15.40;99.90;;;;;;5023324;28;20518;-81
2022/07/14 01:54:11;;;;;;;3.30;1.10;;;15.40;99.90;;;;;;5025671;28;20083;-81
2022/07/14 01:56:40;;;;;;;5.28;1.17;;;15.30;99.90;;;;;;5001813;28;20123;-81
2022/07/14 01:59:07;;;;;;;3.30;1.10;;;15.40;99.90;;;;;;5004631;28;20139;-80
2022/07/14 02:01:42;;;;;;;3.17;1.15;;;15.30;99.90;;;;;;5020561;28;20151;-80
2022/07/14 02:04:12;;;;;;;6.80;1.40;;;15.40;99.90;;;;;;5023979;28;20040;-80
2022/07/14 02:06:50;;;;;;;4.40;1.10;;;15.30;99.90;;;;;;5038685;28;20139;-79
2022/07/14 02:09:19;;;;;;;4.43;1.20;;;15.30;99.90;;;;;;5022523;28;20053;-80
2022/07/14 02:14:31;;;;;;;3.05;0.90;;;15.30;99.90;;;;;;5039612;28;20045;-80
2022/07/14 02:16:58;;;;;;;2.90;1.00;;;15.30;99.90;;;;;;5020694;28;20872;-80
2022/07/14 02:19:26;;;;;;;4.00;1.10;;;15.20;99.90;;;;;;5022356;28;20083;-80
2022/07/14 02:21:54;;;;;;;3.17;1.20;;;15.20;99.90;;;;;;5022895;28;20041;-80
2022/07/14 02:24:21;;;;;;;4.15;1.75;;;15.20;99.90;;;;;;5042108;28;20076;-81
2022/07/14 02:26:50;;;;;;;5.65;1.17;;;15.20;99.90;;;;;;5022289;28;20045;-81
2022/07/14 02:29:16;;;;;;;3.95;1.17;;;15.20;99.90;;;;;;5040308;28;20056;-80
2022/07/14 02:31:43;;;;;;;4.95;1.10;;;15.10;99.90;;;;;;5023820;28;20059;-81
2022/07/14 02:34:08;;;;;;;3.33;1.42;;;15.10;99.90;;;;;;5008387;28;20078;-81
2022/07/14 02:36:34;;;;;;;6.18;1.10;;;15.10;99.90;;;;;;5024962;28;20048;-80
2022/07/14 02:39:00;;;;;;;2.53;1.00;;;15.00;99.90;;;;;;5019226;28;20502;-81
2022/07/14 02:41:26;;;;;;;3.05;0.93;;;15.00;99.90;;;;;;5039774;28;20049;-81
2022/07/14 02:43:51;;;;;;;4.15;1.00;;;14.90;99.90;;;;;;5006496;28;20445;-81
2022/07/14 02:46:17;;;;;;;4.13;1.33;;;14.90;99.90;;;;;;5019286;28;20484;-81
2022/07/14 02:48:46;;;;;;;3.28;1.15;;;14.90;99.90;;;;;;5016724;28;20048;-81
2022/07/14 02:51:12;;;;;;;5.10;1.13;;;14.90;99.90;;;;;;5024896;28;20186;-81
2022/07/14 02:53:40;;;;;;;6.63;1.10;;;14.80;99.90;;;;;;5021606;28;20049;-81
2022/07/14 02:56:07;;;;;;;3.13;0.93;;;14.80;99.90;;;;;;5012933;28;20052;-80
2022/07/14 02:58:34;;;;;;;4.70;1.05;;;14.70;99.90;;;;;;5012219;28;20475;-79
2022/07/14 03:01:03;;;;;;;5.10;1.33;;;14.70;99.90;;;;;;5011329;28;20072;-81
2022/07/14 03:03:29;;;;;;;4.15;1.23;;;14.70;99.90;;;;;;5023096;28;20082;-81
2022/07/14 03:05:54;;;;;;;3.55;1.08;;;14.60;99.90;;;;;;4992387;28;20056;-80
2022/07/14 03:08:20;;;;;;;5.60;1.05;;;14.60;99.90;;;;;;5022880;28;20044;-81
2022/07/14 03:10:46;;;;;;;4.47;1.20;;;14.50;99.90;;;;;;4995455;28;20052;-80
2022/07/14 03:13:12;;;;;;;2.60;1.00;;;14.50;99.90;;;;;;5013022;28;20049;-80
2022/07/14 03:15:38;;;;;;;3.03;1.20;;;14.40;99.90;;;;;;5027302;28;20080;-81
2022/07/14 03:18:04;;;;;;;4.55;0.90;;;14.50;99.90;;;;;;5028321;28;20051;-81
2022/07/14 03:20:30;;;;;;;4.55;1.30;;;14.40;99.90;;;;;;5044706;28;20051;-80
2022/07/14 03:22:56;;;;;;;3.65;1.10;;;14.40;99.90;;;;;;5046638;28;20036;-81
2022/07/14 03:25:22;;;;;;;5.43;1.38;;;14.30;99.90;;;;;;5010187;28;20410;-80
2022/07/14 03:27:48;;;;;;;3.20;1.10;;;14.30;99.90;;;;;;5028495;28;20779;-81
2022/07/14 03:30:15;;;;;;;5.82;1.27;;;14.30;99.90;;;;;;5028886;28;20043;-81
2022/07/14 03:32:40;;;;;;;3.42;1.02;;;14.20;99.90;;;;;;5046458;28;20131;-81
2022/07/14 03:35:07;;;;;;;6.72;1.35;;;14.20;99.90;;;;;;5023548;28;20498;-81
2022/07/14 03:37:36;;;;;;;4.15;1.30;;;14.10;99.90;;;;;;5047002;28;20288;-81
2022/07/14 03:40:06;;;;;;;2.65;1.30;;;14.10;99.90;;;;;;5023680;28;20045;-80
2022/07/14 03:42:32;;;;;;;4.00;1.10;;;14.10;99.90;;;;;;5046318;28;20063;-81
2022/07/14 03:44:58;;;;;;;4.90;1.48;;;14.10;99.90;;;;;;5030818;28;20068;-80
2022/07/14 03:47:24;;;;;;;3.97;1.13;;;14.10;99.90;;;;;;5022823;28;20041;-80
2022/07/14 03:49:50;;;;;;;3.53;1.10;;;14.10;99.90;;;;;;5038720;28;20047;-81
2022/07/14 03:52:19;;;;;;;3.97;1.10;;;14.10;99.90;;;;;;5021048;28;20040;-81
2022/07/14 03:54:46;;;;;;;5.70;1.30;;;14.10;99.90;;;;;;5038692;28;20049;-81
2022/07/14 03:57:12;;;;;;;4.75;1.30;;;14.10;99.90;;;;;;5027619;28;20052;-80
2022/07/14 03:59:40;;;;;;;2.72;1.17;;;14.10;99.90;;;;;;5041248;28;20048;-81
2022/07/14 04:02:15;;;;;;;3.97;1.17;;;14.10;99.90;;;;;;5026858;28;20101;-81
2022/07/14 04:04:41;;;;;;;3.87;1.23;;;14.10;99.90;;;;;;5025540;28;20084;-80
2022/07/14 04:07:07;;;;;;;3.78;1.10;;;14.10;99.90;;;;;;5007820;28;20135;-80
2022/07/14 04:09:33;;;;;;;6.97;1.55;;;14.10;99.90;;;;;;5020266;28;20055;-81
2022/07/14 04:11:59;;;;;;;4.20;1.00;;;14.10;99.90;;;;;;5024639;28;20060;-81
2022/07/14 04:14:24;;;;;;;4.43;1.02;;;14.00;99.90;;;;;;5035950;28;20170;-80
2022/07/14 04:16:51;;;;;;;2.80;0.90;;;14.10;99.90;;;;;;5026775;28;20264;-80
2022/07/14 04:19:16;;;;;;;3.70;1.17;;;14.10;99.90;;;;;;5005076;28;20044;-80
2022/07/14 04:21:42;;;;;;;4.13;1.20;;;14.10;99.90;;;;;;5019910;28;20037;-79
2022/07/14 04:24:08;;;;;;;5.10;1.38;;;14.20;99.90;;;;;;5018860;28;20512;-79
2022/07/14 04:26:37;;;;;;;2.65;0.90;;;14.30;99.90;;;;;;5006645;28;20048;-80
2022/07/14 04:29:04;;;;;;;6.40;1.52;;;14.40;99.90;;;;;;5005517;28;20082;-80
2022/07/14 04:31:30;;;;;;;6.32;1.10;;;14.50;99.90;;;;;;5040523;28;20078;-80
2022/07/14 04:33:56;;;;;;;5.25;0.98;;;14.60;99.90;;;;;;4990562;28;20201;-80
2022/07/14 04:36:23;;;;;;;3.97;1.20;;;14.80;99.90;;;;;;4991520;28;20667;-80
2022/07/14 04:38:51;;;;;;;5.82;1.10;;;14.80;99.90;;;;;;5027782;28;20121;-80
2022/07/14 04:41:16;;;;;;;5.20;1.10;;;14.90;99.90;;;;;;5020259;28;20052;-81
2022/07/14 04:43:42;;;;;;;2.58;0.82;;;15.00;99.90;;;;;;4984325;28;20057;-81
2022/07/14 04:46:09;;;;;;;3.47;0.90;;;15.10;99.90;;;;;;5011264;28;20044;-78
2022/07/14 04:52:01;;;;;;;3.03;0.90;;;15.20;99.90;;;;;;4986905;28;20080;-80
2022/07/14 04:54:05;;;;;;;2.83;1.17;;;15.30;99.90;;;;;;5021298;28;20049;-80
2022/07/14 04:56:31;;;;;;;5.68;1.45;;;15.50;99.90;;;;;;5023612;28;20041;-79
2022/07/14 04:58:57;;;;;;;4.88;1.00;;;15.50;99.90;;;;;;5011424;28;20040;-80
2022/07/14 05:01:23;;;;;;;3.40;1.10;;;15.60;99.90;;;;;;5005459;28;20040;-81
2022/07/14 05:03:49;;;;;;;3.80;0.90;;;15.70;99.90;;;;;;5005841;28;20048;-81
2022/07/14 05:06:16;;;;;;;3.63;1.00;;;15.80;99.90;;;;;;4985745;28;20074;-81
2022/07/14 05:08:42;;;;;;;3.95;1.10;;;15.90;99.90;;;;;;5004117;28;20049;-81
2022/07/14 05:11:08;;;;;;;5.05;0.80;;;16.00;99.90;;;;;;5003068;28;20043;-81
2022/07/14 05:13:34;;;;;;;3.28;0.88;;;16.10;99.90;;;;;;5006740;28;20045;-80
2022/07/14 05:16:02;;;;;;;2.90;1.08;;;16.20;99.90;;;;;;5021461;28;20040;-80
2022/07/14 05:18:28;;;;;;;1.95;0.70;;;16.30;99.90;;;;;;5004678;28;20401;-81
2022/07/14 05:20:53;;;;;;;7.93;1.13;;;16.30;99.90;;;;;;5020695;28;20043;-80
2022/07/14 05:23:19;;;;;;;6.45;1.73;;;16.40;99.90;;;;;;5003340;28;20049;-80
2022/07/14 05:25:45;;;;;;;2.15;1.08;;;16.50;99.90;;;;;;4986148;28;20483;-80
2022/07/14 05:28:10;;;;;;;3.55;0.90;;;16.50;99.90;;;;;;4989028;28;20056;-80
2022/07/14 05:30:36;;;;;;;3.30;0.82;;;16.60;99.90;;;;;;5012506;28;20053;-80
2022/07/14 05:33:02;;;;;;;11.50;1.80;;;16.70;99.90;;;;;;5002065;28;20045;-81
2022/07/14 05:35:28;;;;;;;7.78;1.50;;;16.80;99.90;;;;;;5001295;28;20084;-81
2022/07/14 05:37:54;;;;;;;9.55;1.83;;;16.80;99.90;;;;;;5000361;28;20819;-80
2022/07/14 05:40:20;;;;;;;18.60;2.70;;;16.90;99.90;;;;;;5008569;28;20140;-78
2022/07/14 05:42:45;;;;;;;99.95;9.52;;;17.00;99.90;;;;;;5014912;28;20139;-81
2022/07/14 05:45:11;;;;;;;29.50;4.10;;;17.10;99.90;;;;;;4994443;28;20167;-81
2022/07/14 05:47:38;;;;;;;4.43;0.95;;;17.20;99.90;;;;;;5008927;28;20126;-81
2022/07/14 05:50:04;;;;;;;4.00;0.80;;;17.20;99.90;;;;;;5025614;28;20467;-82
2022/07/14 05:52:30;;;;;;;14.35;2.28;;;17.30;99.90;;;;;;5025943;28;20076;-81
2022/07/14 05:55:00;;;;;;;21.10;2.85;;;17.40;99.90;;;;;;4993190;28;20047;-81
2022/07/14 05:57:26;;;;;;;5.05;1.17;;;17.40;99.90;;;;;;5026786;28;20075;-80
2022/07/14 05:59:52;;;;;;;3.05;0.80;;;17.50;99.90;;;;;;5009817;28;20084;-81
2022/07/14 06:02:18;;;;;;;2.88;0.60;;;17.40;99.90;;;;;;4993072;28;20041;-81
2022/07/14 06:04:44;;;;;;;3.78;0.93;;;17.50;99.90;;;;;;5009831;28;20048;-79
2022/07/14 06:07:10;;;;;;;4.63;1.45;;;17.60;99.90;;;;;;4992765;28;20052;-80
2022/07/14 06:09:37;;;;;;;1.88;0.70;;;17.60;99.90;;;;;;5009025;28;20500;-79
2022/07/14 06:12:07;;;;;;;2.42;0.57;;;17.60;99.90;;;;;;5022920;28;20284;-81
2022/07/14 06:14:33;;;;;;;2.15;0.60;;;17.70;99.90;;;;;;5009106;28;20054;-79
2022/07/14 06:16:59;;;;;;;3.78;0.60;;;17.80;99.90;;;;;;4993614;28;20044;-79
2022/07/14 06:19:25;;;;;;;2.25;0.60;;;17.80;99.90;;;;;;4992921;28;20505;-80
2022/07/14 06:21:50;;;;;;;5.00;0.73;;;17.90;99.90;;;;;;5008257;28;20106;-80
2022/07/14 06:24:16;;;;;;;5.38;0.80;;;17.80;99.90;;;;;;5009604;28;20388;-80
2022/07/14 06:26:42;;;;;;;3.40;0.77;;;17.80;99.90;;;;;;4993183;28;20416;-79
2022/07/14 06:29:08;;;;;;;1.40;0.50;;;17.80;99.90;;;;;;5006447;28;20048;-81
2022/07/14 06:31:36;;;;;;;3.63;0.80;;;17.80;99.90;;;;;;5010706;28;20072;-78
2022/07/14 06:34:05;;;;;;;2.47;0.70;;;17.90;99.90;;;;;;5009119;28;20074;-79
2022/07/14 06:36:31;;;;;;;1.35;0.55;;;18.00;99.90;;;;;;4992217;28;20045;-79
2022/07/14 06:38:58;;;;;;;4.28;0.68;;;18.10;99.90;;;;;;5002694;28;20041;-81
2022/07/14 06:41:24;;;;;;;1.58;0.70;;;18.20;99.90;;;;;;5010131;28;20049;-81
2022/07/14 06:43:50;;;;;;;1.63;0.68;;;18.30;99.90;;;;;;5007653;28;20057;-81
2022/07/14 06:46:16;;;;;;;3.75;0.70;;;18.40;99.90;;;;;;5019548;28;20829;-78
2022/07/14 06:48:43;;;;;;;1.70;0.70;;;18.30;99.90;;;;;;5019404;28;20565;-78
2022/07/14 06:51:09;;;;;;;0.85;0.60;;;18.50;99.90;;;;;;5018598;28;20072;-77
2022/07/14 06:53:35;;;;;;;3.55;0.65;;;18.60;99.90;;;;;;5022924;28;20098;-78
2022/07/14 06:56:01;;;;;;;4.40;0.80;;;18.60;99.90;;;;;;5016136;28;20480;-77
2022/07/14 06:58:27;;;;;;;2.83;0.68;;;18.70;99.90;;;;;;5021584;28;20048;-79
2022/07/14 07:00:52;;;;;;;1.25;0.80;;;18.60;99.90;;;;;;5035942;28;20408;-79
2022/07/14 07:03:18;;;;;;;3.65;0.75;;;18.60;99.90;;;;;;5021306;28;20040;-78
2022/07/14 07:08:28;;;;;;;3.83;0.65;;;18.80;99.90;;;;;;5038478;28;20044;-79
2022/07/14 07:10:58;;;;;;;3.10;0.77;;;19.00;99.90;;;;;;4999487;28;20102;-79
2022/07/14 07:13:26;;;;;;;3.22;0.93;;;19.20;99.90;;;;;;5024523;28;20097;-79
2022/07/14 07:15:53;;;;;;;2.25;0.70;;;19.30;99.90;;;;;;5027211;28;20076;-79
2022/07/14 07:18:18;;;;;;;3.72;0.80;;;19.30;99.90;;;;;;5001151;28;20368;-79
2022/07/14 07:20:44;;;;;;;3.47;0.70;;;19.40;99.90;;;;;;5017548;28;20557;-80
2022/07/14 07:23:10;;;;;;;3.38;0.70;;;19.40;99.90;;;;;;5023201;28;20391;-80
2022/07/14 07:25:36;;;;;;;3.65;0.63;;;19.50;99.90;;;;;;5042821;28;20053;-79
2022/07/14 07:28:02;;;;;;;2.58;0.82;;;19.50;99.90;;;;;;4997924;28;20041;-79
2022/07/14 07:30:28;;;;;;;2.83;0.77;;;19.50;99.90;;;;;;5028531;28;20120;-79
2022/07/14 07:32:54;;;;;;;2.85;0.70;;;19.70;99.90;;;;;;5041561;28;20128;-79
2022/07/14 07:35:20;;;;;;;2.90;1.15;;;19.70;99.90;;;;;;5028782;28;20463;-79
2022/07/14 07:37:46;;;;;;;1.67;0.55;;;19.80;99.90;;;;;;5030926;28;20048;-79
2022/07/14 07:40:16;;;;;;;3.13;0.60;;;19.20;99.90;;;;;;5028405;28;20052;-79
2022/07/14 07:42:44;;;;;;;3.22;0.70;;;19.80;99.90;;;;;;5030824;28;20053;-78
2022/07/14 07:45:10;;;;;;;2.75;0.68;;;19.80;99.90;;;;;;4990931;28;20200;-79
2022/07/14 07:47:36;;;;;;;2.38;0.98;;;19.90;99.90;;;;;;5023982;28;20041;-79
2022/07/14 07:50:03;;;;;;;3.35;0.90;;;19.90;99.90;;;;;;5026663;28;20502;-80
2022/07/14 07:52:28;;;;;;;2.13;1.05;;;20.00;99.90;;;;;;5044989;28;20047;-79
2022/07/14 07:54:55;;;;;;;2.47;0.70;;;20.00;99.90;;;;;;5011859;28;20047;-83
2022/07/14 07:57:21;;;;;;;2.92;0.70;;;20.10;99.90;;;;;;5036188;28;20126;-81
2022/07/14 07:59:49;;;;;;;2.00;0.70;;;20.00;99.90;;;;;;5002099;28;20048;-80
2022/07/14 08:02:16;;;;;;;4.28;1.10;;;20.10;99.90;;;;;;4989135;28;20045;-80
2022/07/14 08:04:41;;;;;;;1.55;0.70;;;20.20;99.90;;;;;;4988112;28;20051;-80
2022/07/14 08:07:07;;;;;;;2.75;0.55;;;20.30;99.90;;;;;;5020890;28;20049;-80
2022/07/14 08:09:33;;;;;;;1.88;0.70;;;20.30;99.90;;;;;;5006607;28;20043;-80
2022/07/14 08:11:59;;;;;;;2.97;0.77;;;20.40;99.90;;;;;;5029595;28;20144;-83
2022/07/14 08:17:09;;;;;;;4.60;0.80;;;20.60;99.90;;;;;;5026478;28;20495;-81
2022/07/14 08:19:35;;;;;;;5.72;0.80;;;20.70;99.90;;;;;;5006881;28;20110;-81
2022/07/14 08:22:06;;;;;;;2.03;0.60;;;20.70;99.90;;;;;;5026118;28;20063;-80
2022/07/14 08:24:32;;;;;;;3.05;0.80;;;20.60;99.90;;;;;;4999372;28;20049;-80
2022/07/14 08:26:58;;;;;;;2.65;0.70;;;20.70;99.90;;;;;;5024448;28;20396;-80
2022/07/14 08:29:23;;;;;;;2.28;0.70;;;20.70;99.90;;;;;;5007210;28;20091;-80
2022/07/14 08:31:50;;;;;;;5.53;1.13;;;20.70;99.90;;;;;;5007665;28;20468;-80
2022/07/14 08:34:15;;;;;;;2.80;0.82;;;20.80;99.90;;;;;;5022838;28;20373;-80
2022/07/14 08:36:41;;;;;;;1.95;0.65;;;20.90;99.90;;;;;;5031753;28;20106;-80
2022/07/14 08:39:08;;;;;;;2.47;0.80;;;21.00;99.90;;;;;;4991035;28;20056;-79
2022/07/14 08:41:36;;;;;;;5.07;1.20;;;21.00;99.90;;;;;;5023917;28;20124;-79
2022/07/14 08:44:03;;;;;;;2.13;0.73;;;20.90;99.90;;;;;;5026431;28;20052;-79
2022/07/14 08:46:31;;;;;;;4.28;0.80;;;21.00;99.90;;;;;;5027423;28;20040;-81
2022/07/14 08:48:57;;;;;;;6.68;1.38;;;21.00;99.90;;;;;;5027361;28;20080;-81
2022/07/14 08:51:24;;;;;;;4.55;1.02;;;21.00;99.90;;;;;;5025663;28;20092;-84
2022/07/14 08:53:50;;;;;;;15.88;1.85;;;21.00;99.90;;;;;;5027550;28;20085;-80
2022/07/14 08:56:16;;;;;;;2.90;0.60;;;20.90;99.90;;;;;;5027430;28;20055;-81
2022/07/14 08:58:43;;;;;;;3.15;0.70;;;20.90;99.90;;;;;;5043114;28;20045;-82
2022/07/14 09:01:09;;;;;;;2.22;0.70;;;21.00;99.90;;;;;;5029308;28;20087;-81
2022/07/14 09:03:35;;;;;;;4.95;0.90;;;21.00;99.90;;;;;;5028742;28;20072;-80
2022/07/14 09:06:00;;;;;;;2.92;0.65;;;21.00;99.90;;;;;;5053219;28;20041;-80
2022/07/14 09:08:26;;;;;;;5.18;1.00;;;20.90;99.90;;;;;;5029698;28;20148;-80
2022/07/14 09:10:52;;;;;;;4.05;1.08;;;20.90;99.90;;;;;;5046191;28;20130;-80
2022/07/14 09:13:22;;;;;;;1.85;0.70;;;21.00;99.90;;;;;;5012654;28;20056;-80
2022/07/14 09:16:15;;;;;;;4.53;1.13;;;21.40;99.90;;;;;;5009542;28;20049;-80
2022/07/14 09:18:41;;;;;;;3.60;0.77;;;21.70;99.90;;;;;;5061237;28;20127;-79
2022/07/14 09:21:27;;;;;;;2.95;0.50;;;21.70;99.90;;;;;;5028579;28;20056;-81
2022/07/14 09:23:55;;;;;;;4.13;0.90;;;21.70;99.90;;;;;;5026379;28;20064;-81
2022/07/14 09:26:21;;;;;;;1.42;0.50;;;21.80;99.90;;;;;;5042359;28;20048;-80
2022/07/14 09:28:49;;;;;;;2.55;0.60;;;21.80;99.90;;;;;;5011301;28;20045;-80
2022/07/14 09:31:27;;;;;;;1.58;0.70;;;21.70;99.90;;;;;;5026475;28;20058;-81
2022/07/14 09:33:55;;;;;;;3.47;0.85;;;21.70;99.90;;;;;;5042055;28;20033;-81
2022/07/14 09:36:33;;;;;;;2.35;0.77;;;21.60;99.90;;;;;;5027870;28;20049;-80
2022/07/14 09:39:07;;;;;;;2.28;0.77;;;21.50;99.90;;;;;;5043789;28;20051;-82
2022/07/14 09:41:50;;;;;;;2.50;0.70;;;21.60;99.90;;;;;;5033664;28;20082;-81
2022/07/14 09:44:18;;;;;;;3.35;0.80;;;21.70;99.90;;;;;;5040864;28;20040;-81
2022/07/14 09:46:56;;;;;;;2.25;0.70;;;21.70;99.90;;;;;;5026148;28;20513;-80
2022/07/14 09:49:27;;;;;;;2.67;0.50;;;21.80;99.90;;;;;;5035154;28;20061;-81
2022/07/14 09:52:04;;;;;;;1.25;0.60;;;21.90;99.90;;;;;;5027339;28;20048;-80
2022/07/14 09:54:50;;;;;;;1.85;0.70;;;22.00;99.90;;;;;;5025729;28;20567;-81
2022/07/14 09:57:23;;;;;;;1.80;0.50;;;22.20;99.90;;;;;;5034950;28;20064;-80
2022/07/14 09:59:56;;;;;;;3.28;0.50;;;22.20;99.90;;;;;;5026431;28;20079;-80
2022/07/14 10:02:30;;;;;;;2.88;0.52;;;22.10;99.90;;;;;;5042805;28;20057;-80
2022/07/14 10:05:01;;;;;;;1.27;0.50;;;22.30;99.90;;;;;;5034477;28;20041;-79
2022/07/14 10:07:29;;;;;;;1.83;0.60;;;22.10;99.90;;;;;;5027194;28;20045;-79
2022/07/14 10:10:03;;;;;;;3.20;0.60;;;22.00;99.90;;;;;;5033894;28;20048;-80
2022/07/14 10:12:29;;;;;;;2.13;0.70;;;21.90;99.90;;;;;;5041963;28;20048;-80
2022/07/14 10:14:59;;;;;;;1.95;0.50;;;21.90;99.90;;;;;;5025582;28;20177;-81
2022/07/14 10:17:28;;;;;;;1.85;0.70;;;21.90;99.90;;;;;;5008736;28;20056;-81
2022/07/14 10:19:54;;;;;;;3.83;0.90;;;21.90;99.90;;;;;;5018048;28;20061;-81
2022/07/14 10:22:20;;;;;;;1.92;0.55;;;21.90;99.90;;;;;;5025967;28;20407;-82
2022/07/14 10:24:49;;;;;;;2.72;0.70;;;21.80;99.90;;;;;;5007015;28;20167;-84
2022/07/14 10:27:18;;;;;;;2.40;0.68;;;21.80;99.90;;;;;;5032014;28;20400;-83
2022/07/14 10:29:48;;;;;;;3.67;0.80;;;21.80;99.90;;;;;;5019993;28;20051;-83
2022/07/14 10:32:30;;;;;;;3.53;0.88;;;21.80;99.90;;;;;;5041033;28;20056;-83
2022/07/14 10:35:23;;;;;;;2.53;0.50;;;21.70;99.90;;;;;;5022868;28;20037;-83
2022/07/14 10:38:06;;;;;;;1.63;0.60;;;21.70;99.90;;;;;;5038829;28;20102;-84
2022/07/14 10:40:51;;;;;;;1.42;0.60;;;21.60;99.90;;;;;;5026368;28;20148;-84
2022/07/14 10:43:21;;;;;;;3.30;0.88;;;21.60;99.90;;;;;;5032432;28;20056;-84
2022/07/14 10:45:52;;;;;;;2.15;0.82;;;21.50;99.90;;;;;;5042711;28;20640;-83
2022/07/14 10:48:35;;;;;;;2.13;0.70;;;21.60;99.90;;;;;;5024954;28;20036;-84
2022/07/14 10:51:17;;;;;;;2.35;1.15;;;21.70;99.90;;;;;;5037689;28;20044;-81
2022/07/14 10:54:04;;;;;;;3.13;0.70;;;22.20;99.90;;;;;;5050380;28;20048;-83
2022/07/14 10:56:30;;;;;;;1.80;0.63;;;22.60;99.90;;;;;;5037953;28;20041;-84
2022/07/14 10:59:28;;;;;;;2.42;0.65;;;22.90;99.90;;;;;;5020145;28;20055;-84
2022/07/14 11:02:12;;;;;;;1.40;0.60;;;23.10;99.90;;;;;;5022191;28;20040;-84
2022/07/14 11:04:56;;;;;;;2.15;0.50;;;23.60;99.90;;;;;;5029894;28;20048;-84
2022/07/14 11:07:43;;;;;;;2.50;0.60;;;24.20;99.40;;;;;;5037358;28;20055;-84
2022/07/14 11:10:18;;;;;;;1.95;0.50;;;23.80;98.20;;;;;;5036164;28;20385;-82
2022/07/14 11:12:59;;;;;;;1.55;0.50;;;24.50;97.90;;;;;;5034672;28;20088;-82
2022/07/14 11:15:56;;;;;;;3.40;0.80;;;24.30;96.40;;;;;;5040353;28;20139;-80
2022/07/14 11:18:26;;;;;;;1.70;0.52;;;23.80;97.50;;;;;;5035276;28;20632;-82
2022/07/14 11:20:55;;;;;;;2.97;0.75;;;23.40;98.20;;;;;;5042995;28;20118;-81
2022/07/14 11:23:26;;;;;;;3.85;0.80;;;23.30;98.40;;;;;;5041413;28;20376;-82
2022/07/14 11:25:53;;;;;;;2.60;1.02;;;23.00;98.30;;;;;;5024328;28;20135;-81
2022/07/14 11:28:39;;;;;;;2.35;0.60;;;23.30;98.50;;;;;;5023580;28;20075;-81
2022/07/14 11:31:09;;;;;;;3.05;0.65;;;23.40;98.20;;;;;;5024460;28;20052;-84
2022/07/14 11:33:36;;;;;;;1.65;0.60;;;23.70;98.80;;;;;;5040305;28;20131;-81
2022/07/14 11:36:18;;;;;;;1.60;0.60;;;24.20;98.50;;;;;;5031636;28;20139;-82
2022/07/14 11:38:44;;;;;;;2.35;0.70;;;24.70;97.50;;;;;;5024677;28;20052;-83
2022/07/14 11:41:14;;;;;;;1.00;0.40;;;25.30;96.70;;;;;;5041970;28;20499;-82
2022/07/14 11:43:46;;;;;;;2.15;0.50;;;25.70;95.40;;;;;;5022655;28;20124;-81
2022/07/14 11:46:17;;;;;;;1.25;0.50;;;25.90;94.70;;;;;;5015422;28;20049;-81
2022/07/14 11:48:56;;;;;;;5.28;0.88;;;25.90;94.50;;;;;;5026614;28;20044;-83
2022/07/14 11:51:31;;;;;;;1.63;0.57;;;25.70;93.90;;;;;;5017916;28;20048;-82
2022/07/14 11:54:01;;;;;;;5.00;0.90;;;26.00;94.40;;;;;;5016268;28;20052;-80
2022/07/14 11:56:29;;;;;;;3.92;0.50;;;26.20;92.40;;;;;;5032813;28;20068;-83
2022/07/14 11:59:03;;;;;;;1.88;0.90;;;26.30;92.20;;;;;;5013654;28;21716;-82
2022/07/14 12:01:38;;;;;;;2.30;0.63;;;26.20;91.40;;;;;;5025950;28;20044;-81
2022/07/14 12:04:17;;;;;;;1.02;0.40;;;25.70;90.90;;;;;;5014667;28;20067;-79
2022/07/14 12:06:44;;;;;;;1.98;0.60;;;25.10;91.40;;;;;;5031706;28;20067;-79
2022/07/14 12:09:11;;;;;;;1.42;0.63;;;25.20;92.60;;;;;;5040576;28;20135;-84
2022/07/14 12:11:37;;;;;;;2.75;0.60;;;25.30;93.00;;;;;;4992574;28;20095;-81
2022/07/14 12:14:03;;;;;;;2.95;0.63;;;25.30;93.10;;;;;;5039148;28;20126;-83
2022/07/14 12:16:41;;;;;;;2.47;0.70;;;25.20;93.30;;;;;;5003397;28;20053;-82
2022/07/14 12:19:08;;;;;;;2.63;0.60;;;25.10;93.20;;;;;;5041894;28;20731;-83
2022/07/14 12:21:35;;;;;;;3.42;0.77;;;25.10;94.10;;;;;;5023391;28;20411;-82
2022/07/14 12:24:02;;;;;;;3.50;1.08;;;25.40;93.90;;;;;;5022360;28;20410;-81
2022/07/14 12:26:29;;;;;;;3.00;0.60;;;25.60;93.40;;;;;;5033073;28;20056;-81
2022/07/14 12:28:57;;;;;;;2.97;0.68;;;25.60;93.40;;;;;;5025311;28;20056;-81
2022/07/14 12:31:24;;;;;;;2.13;0.70;;;25.50;93.50;;;;;;5027756;28;20102;-83
2022/07/14 12:33:54;;;;;;;2.42;0.60;;;25.30;93.50;;;;;;5020931;28;20041;-82
2022/07/14 12:36:23;;;;;;;1.85;0.47;;;25.30;92.90;;;;;;5046646;28;20048;-80
2022/07/14 12:38:49;;;;;;;2.72;0.70;;;25.50;92.50;;;;;;5042060;28;20032;-80
2022/07/14 12:41:20;;;;;;;2.13;0.50;;;25.80;92.00;;;;;;5022931;28;20055;-80
2022/07/14 12:43:46;;;;;;;2.30;0.70;;;25.90;91.80;;;;;;5032678;28;20055;-80
2022/07/14 12:46:18;;;;;;;2.63;0.73;;;26.00;91.80;;;;;;5033746;28;20134;-80
2022/07/14 12:48:50;;;;;;;1.98;0.80;;;26.10;90.80;;;;;;5042259;28;20277;-81
2022/07/14 12:51:32;;;;;;;2.80;0.73;;;26.20;91.00;;;;;;5041722;28;20041;-82
2022/07/14 12:54:18;;;;;;;1.73;0.70;;;26.30;90.90;;;;;;5023898;28;20129;-81
2022/07/14 12:56:48;;;;;;;3.15;0.93;;;26.40;90.50;;;;;;5021253;28;20044;-81
2022/07/14 12:59:17;;;;;;;2.97;0.80;;;26.20;90.40;;;;;;5017190;28;20402;-82
2022/07/14 13:01:53;;;;;;;4.80;0.88;;;26.40;90.00;;;;;;5030529;28;20056;-81
2022/07/14 13:04:41;;;;;;;2.72;0.88;;;26.40;88.80;;;;;;5040085;28;20041;-82